sensor_id;sensor_type;location;lat;lon;timestamp;pressure;altitude;pressure_sealevel;temperature;humidity
22572;BME280;11452;53.368;14.658;2022-10-31T00:04:51;101318.18;;;14.93;85.94
22572;BME280;11452;53.368;14.658;2022-10-31T00:09:56;101313.28;;;14.93;86.07
22572;BME280;11452;53.368;14.658;2022-10-31T00:15:02;101309.62;;;14.94;86.14
22572;BME280;11452;53.368;14.658;2022-10-31T00:20:08;101310.11;;;14.93;86.11
22572;BME280;11452;53.368;14.658;2022-10-31T00:25:14;101316.55;;;14.90;85.96
22572;BME280;11452;53.368;14.658;2022-10-31T00:30:19;101313.67;;;14.86;85.73
22572;BME280;11452;53.368;14.658;2022-10-31T00:35:25;101306.97;;;14.79;85.66
22572;BME280;11452;53.368;14.658;2022-10-31T00:40:31;101317.16;;;14.67;85.18
22572;BME280;11452;53.368;14.658;2022-10-31T00:45:36;101318.25;;;14.65;85.79
22572;BME280;11452;53.368;14.658;2022-10-31T00:50:42;101326.32;;;14.65;85.81
22572;BME280;11452;53.368;14.658;2022-10-31T00:55:48;101337.75;;;14.61;85.78
22572;BME280;11452;53.368;14.658;2022-10-31T01:00:54;101326.02;;;14.55;85.36
22572;BME280;11452;53.368;14.658;2022-10-31T01:06:02;101325.83;;;14.51;85.24
22572;BME280;11452;53.368;14.658;2022-10-31T01:11:14;101324.19;;;14.48;85.30
22572;BME280;11452;53.368;14.658;2022-10-31T01:16:24;101325.76;;;14.45;85.23
22572;BME280;11452;53.368;14.658;2022-10-31T01:21:29;101320.18;;;14.41;84.95
22572;BME280;11452;53.368;14.658;2022-10-31T01:26:35;101318.31;;;14.35;84.83
22572;BME280;11452;53.368;14.658;2022-10-31T01:31:40;101320.23;;;14.33;84.92
22572;BME280;11452;53.368;14.658;2022-10-31T01:36:46;101318.88;;;14.33;85.10
22572;BME280;11452;53.368;14.658;2022-10-31T01:41:54;101318.41;;;14.33;85.10
22572;BME280;11452;53.368;14.658;2022-10-31T01:47:04;101323.88;;;14.32;84.86
22572;BME280;11452;53.368;14.658;2022-10-31T01:57:55;101317.84;;;14.21;85.22
22572;BME280;11452;53.368;14.658;2022-10-31T02:03:02;101315.14;;;14.21;85.31
22572;BME280;11452;53.368;14.658;2022-10-31T02:08:23;101306.69;;;14.20;85.42
22572;BME280;11452;53.368;14.658;2022-10-31T02:13:29;101309.29;;;14.21;85.39
22572;BME280;11452;53.368;14.658;2022-10-31T02:18:35;101321.48;;;14.20;85.59
22572;BME280;11452;53.368;14.658;2022-10-31T02:29:31;101325.41;;;14.14;85.15
22572;BME280;11452;53.368;14.658;2022-10-31T02:34:36;101322.42;;;14.12;85.31
22572;BME280;11452;53.368;14.658;2022-10-31T02:50:33;101328.86;;;14.02;85.17
22572;BME280;11452;53.368;14.658;2022-10-31T02:55:44;101326.17;;;14.02;85.45
22572;BME280;11452;53.368;14.658;2022-10-31T03:00:57;101330.11;;;14.04;85.52
22572;BME280;11452;53.368;14.658;2022-10-31T03:11:16;101332.32;;;14.04;85.65
22572;BME280;11452;53.368;14.658;2022-10-31T03:21:33;101320.88;;;14.01;85.67
22572;BME280;11452;53.368;14.658;2022-10-31T03:26:43;101330.20;;;14.02;85.47
22572;BME280;11452;53.368;14.658;2022-10-31T03:32:02;101341.05;;;14.01;85.70
22572;BME280;11452;53.368;14.658;2022-10-31T03:36:59;101334.98;;;13.97;85.41
22572;BME280;11452;53.368;14.658;2022-10-31T03:42:15;101335.16;;;13.94;85.15
22572;BME280;11452;53.368;14.658;2022-10-31T03:47:15;101336.98;;;13.86;84.94
22572;BME280;11452;53.368;14.658;2022-10-31T03:52:28;101345.89;;;13.80;84.71
22572;BME280;11452;53.368;14.658;2022-10-31T03:57:37;101347.41;;;13.77;85.04
22572;BME280;11452;53.368;14.658;2022-10-31T04:02:47;101346.45;;;13.71;84.58
22572;BME280;11452;53.368;14.658;2022-10-31T04:07:54;101337.23;;;13.68;84.61
22572;BME280;11452;53.368;14.658;2022-10-31T04:13:03;101334.63;;;13.66;84.49
22572;BME280;11452;53.368;14.658;2022-10-31T04:18:11;101333.77;;;13.66;84.68
22572;BME280;11452;53.368;14.658;2022-10-31T04:23:24;101334.23;;;13.65;84.45
22572;BME280;11452;53.368;14.658;2022-10-31T04:28:31;101342.30;;;13.65;84.62
22572;BME280;11452;53.368;14.658;2022-10-31T04:33:38;101351.36;;;13.56;83.79
22572;BME280;11452;53.368;14.658;2022-10-31T04:38:44;101359.50;;;13.47;84.03
22572;BME280;11452;53.368;14.658;2022-10-31T04:43:51;101354.95;;;13.40;83.48
22572;BME280;11452;53.368;14.658;2022-10-31T04:48:56;101352.59;;;13.27;83.33
22572;BME280;11452;53.368;14.658;2022-10-31T04:54:02;101356.38;;;13.16;83.11
22572;BME280;11452;53.368;14.658;2022-10-31T04:59:10;101361.83;;;13.06;82.88
22572;BME280;11452;53.368;14.658;2022-10-31T05:04:20;101365.78;;;12.92;82.45
22572;BME280;11452;53.368;14.658;2022-10-31T05:09:26;101355.06;;;12.83;82.33
22572;BME280;11452;53.368;14.658;2022-10-31T05:14:31;101361.52;;;12.72;82.00
22572;BME280;11452;53.368;14.658;2022-10-31T05:19:55;101378.29;;;12.60;81.75
22572;BME280;11452;53.368;14.658;2022-10-31T05:25:02;101381.84;;;12.52;81.66
22572;BME280;11452;53.368;14.658;2022-10-31T05:30:11;101380.35;;;12.46;81.49
22572;BME280;11452;53.368;14.658;2022-10-31T05:35:20;101374.87;;;12.40;81.47
22572;BME280;11452;53.368;14.658;2022-10-31T05:40:33;101375.89;;;12.38;81.25
22572;BME280;11452;53.368;14.658;2022-10-31T05:45:39;101382.28;;;12.35;81.34
22572;BME280;11452;53.368;14.658;2022-10-31T05:50:48;101381.41;;;12.35;81.51
22572;BME280;11452;53.368;14.658;2022-10-31T05:55:53;101384.56;;;12.34;81.78
22572;BME280;11452;53.368;14.658;2022-10-31T06:00:59;101381.22;;;12.46;82.41
22572;BME280;11452;53.368;14.658;2022-10-31T06:06:06;101388.65;;;12.74;83.59
22572;BME280;11452;53.368;14.658;2022-10-31T06:11:14;101401.39;;;13.02;83.69
22572;BME280;11452;53.368;14.658;2022-10-31T06:16:39;101399.18;;;13.02;83.77
22572;BME280;11452;53.368;14.658;2022-10-31T06:21:53;101400.33;;;12.98;83.40
22572;BME280;11452;53.368;14.658;2022-10-31T06:26:59;101403.97;;;13.12;84.82
22572;BME280;11452;53.368;14.658;2022-10-31T06:32:05;101408.19;;;13.25;84.35
22572;BME280;11452;53.368;14.658;2022-10-31T06:37:12;101418.83;;;13.02;83.43
22572;BME280;11452;53.368;14.658;2022-10-31T06:42:20;101424.25;;;12.94;83.64
22572;BME280;11452;53.368;14.658;2022-10-31T06:47:25;101438.06;;;12.95;83.39
22572;BME280;11452;53.368;14.658;2022-10-31T06:52:35;101434.52;;;12.86;83.11
22572;BME280;11452;53.368;14.658;2022-10-31T06:57:41;101439.81;;;12.87;83.09
22572;BME280;11452;53.368;14.658;2022-10-31T07:02:56;101444.38;;;12.94;82.86
22572;BME280;11452;53.368;14.658;2022-10-31T07:08:05;101441.92;;;12.98;82.79
22572;BME280;11452;53.368;14.658;2022-10-31T07:13:13;101446.70;;;13.00;82.69
22572;BME280;11452;53.368;14.658;2022-10-31T07:18:21;101458.68;;;13.10;82.91
22572;BME280;11452;53.368;14.658;2022-10-31T07:23:28;101457.55;;;13.23;83.30
22572;BME280;11452;53.368;14.658;2022-10-31T07:28:38;101460.16;;;13.40;83.17
22572;BME280;11452;53.368;14.658;2022-10-31T07:33:44;101471.17;;;13.51;83.15
22572;BME280;11452;53.368;14.658;2022-10-31T07:38:57;101476.79;;;13.62;83.03
22572;BME280;11452;53.368;14.658;2022-10-31T07:44:03;101484.03;;;13.69;82.57
22572;BME280;11452;53.368;14.658;2022-10-31T07:49:26;101486.17;;;13.78;82.72
22572;BME280;11452;53.368;14.658;2022-10-31T07:54:49;101487.32;;;13.97;83.09
22572;BME280;11452;53.368;14.658;2022-10-31T07:59:56;101487.97;;;14.16;83.26
22572;BME280;11452;53.368;14.658;2022-10-31T08:05:03;101483.11;;;14.45;83.61
22572;BME280;11452;53.368;14.658;2022-10-31T08:10:28;101484.59;;;14.72;83.69
22572;BME280;11452;53.368;14.658;2022-10-31T08:15:35;101485.27;;;15.04;83.97
22572;BME280;11452;53.368;14.658;2022-10-31T08:20:44;101483.14;;;15.31;84.10
22572;BME280;11452;53.368;14.658;2022-10-31T08:25:50;101487.44;;;15.54;83.73
22572;BME280;11452;53.368;14.658;2022-10-31T08:30:57;101500.23;;;15.72;83.61
22572;BME280;11452;53.368;14.658;2022-10-31T08:36:20;101497.00;;;15.87;83.64
22572;BME280;11452;53.368;14.658;2022-10-31T08:41:40;101500.30;;;16.05;83.69
22572;BME280;11452;53.368;14.658;2022-10-31T08:46:48;101501.00;;;16.21;83.54
22572;BME280;11452;53.368;14.658;2022-10-31T08:51:54;101506.95;;;16.46;84.41
22572;BME280;11452;53.368;14.658;2022-10-31T08:57:01;101493.12;;;16.70;83.97
22572;BME280;11452;53.368;14.658;2022-10-31T09:02:08;101502.88;;;16.85;83.56
22572;BME280;11452;53.368;14.658;2022-10-31T09:07:14;101502.10;;;16.96;83.36
22572;BME280;11452;53.368;14.658;2022-10-31T09:12:21;101504.31;;;17.22;83.75
22572;BME280;11452;53.368;14.658;2022-10-31T09:17:47;101502.83;;;17.36;82.91
22572;BME280;11452;53.368;14.658;2022-10-31T09:22:59;101501.53;;;17.42;82.49
22572;BME280;11452;53.368;14.658;2022-10-31T09:28:08;101503.05;;;17.51;82.54
22572;BME280;11452;53.368;14.658;2022-10-31T09:33:14;101506.62;;;17.52;80.93
22572;BME280;11452;53.368;14.658;2022-10-31T09:38:22;101518.72;;;17.41;80.70
22572;BME280;11452;53.368;14.658;2022-10-31T09:54:49;101532.84;;;17.57;80.65
22572;BME280;11452;53.368;14.658;2022-10-31T09:59:55;101532.36;;;17.57;80.63
22572;BME280;11452;53.368;14.658;2022-10-31T10:05:03;101537.22;;;17.65;79.73
22572;BME280;11452;53.368;14.658;2022-10-31T10:26:40;101537.86;;;17.87;79.68
22572;BME280;11452;53.368;14.658;2022-10-31T10:31:46;101535.73;;;18.03;80.05
22572;BME280;11452;53.368;14.658;2022-10-31T10:37:04;101539.73;;;18.10;79.22
22572;BME280;11452;53.368;14.658;2022-10-31T10:42:15;101535.33;;;18.15;79.49
22572;BME280;11452;53.368;14.658;2022-10-31T10:47:44;101542.70;;;18.13;78.75
22572;BME280;11452;53.368;14.658;2022-10-31T10:53:30;101556.11;;;18.14;78.63
22572;BME280;11452;53.368;14.658;2022-10-31T10:58:06;101544.91;;;18.13;78.25
22572;BME280;11452;53.368;14.658;2022-10-31T11:03:14;101549.31;;;18.32;78.99
22572;BME280;11452;53.368;14.658;2022-10-31T11:08:31;101537.88;;;18.34;78.33
22572;BME280;11452;53.368;14.658;2022-10-31T11:13:39;101543.82;;;18.45;78.39
22572;BME280;11452;53.368;14.658;2022-10-31T11:18:47;101544.40;;;18.61;78.97
22572;BME280;11452;53.368;14.658;2022-10-31T11:29:22;101547.28;;;18.71;78.30
22572;BME280;11452;53.368;14.658;2022-10-31T11:34:31;101539.28;;;18.81;77.63
22572;BME280;11452;53.368;14.658;2022-10-31T11:39:46;101535.62;;;18.87;77.75
22572;BME280;11452;53.368;14.658;2022-10-31T11:44:46;101522.45;;;18.99;77.34
22572;BME280;11452;53.368;14.658;2022-10-31T11:49:52;101520.75;;;19.10;77.68
22572;BME280;11452;53.368;14.658;2022-10-31T11:55:00;101530.61;;;19.22;77.75
22572;BME280;11452;53.368;14.658;2022-10-31T12:00:24;101533.44;;;19.20;76.61
22572;BME280;11452;53.368;14.658;2022-10-31T12:05:32;101522.84;;;19.34;77.16
22572;BME280;11452;53.368;14.658;2022-10-31T12:10:44;101515.20;;;19.39;76.58
22572;BME280;11452;53.368;14.658;2022-10-31T12:15:50;101512.00;;;19.40;75.57
22572;BME280;11452;53.368;14.658;2022-10-31T12:31:53;101520.64;;;19.50;74.99
22572;BME280;11452;53.368;14.658;2022-10-31T12:37:13;101512.38;;;19.46;74.92
22572;BME280;11452;53.368;14.658;2022-10-31T12:48:00;101513.83;;;19.67;75.16
22572;BME280;11452;53.368;14.658;2022-10-31T12:53:18;101509.52;;;19.70;74.83
22572;BME280;11452;53.368;14.658;2022-10-31T12:58:30;101504.95;;;19.76;74.27
22572;BME280;11452;53.368;14.658;2022-10-31T13:03:46;101508.66;;;19.69;73.76
22572;BME280;11452;53.368;14.658;2022-10-31T13:09:05;101509.67;;;19.57;73.01
22572;BME280;11452;53.368;14.658;2022-10-31T13:19:35;101507.83;;;19.63;73.59
22572;BME280;11452;53.368;14.658;2022-10-31T13:24:43;101507.16;;;19.49;72.48
22572;BME280;11452;53.368;14.658;2022-10-31T13:30:10;101499.67;;;19.19;72.43
22572;BME280;11452;53.368;14.658;2022-10-31T13:35:23;101506.33;;;19.03;72.63
22572;BME280;11452;53.368;14.658;2022-10-31T13:45:53;101493.64;;;19.21;74.10
22572;BME280;11452;53.368;14.658;2022-10-31T13:51:04;101490.31;;;19.06;72.81
22572;BME280;11452;53.368;14.658;2022-10-31T13:56:16;101487.58;;;18.95;73.58
22572;BME280;11452;53.368;14.658;2022-10-31T14:01:22;101490.03;;;18.81;73.40
22572;BME280;11452;53.368;14.658;2022-10-31T14:06:52;101489.89;;;18.66;73.16
22572;BME280;11452;53.368;14.658;2022-10-31T14:11:52;101503.67;;;18.33;72.81
22572;BME280;11452;53.368;14.658;2022-10-31T14:16:59;101499.48;;;18.06;73.30
22572;BME280;11452;53.368;14.658;2022-10-31T14:22:18;101514.02;;;18.75;70.29
22572;BME280;11452;53.368;14.658;2022-10-31T14:32:35;101522.61;;;17.37;74.81
22572;BME280;11452;53.368;14.658;2022-10-31T14:43:46;101521.44;;;16.77;76.26
22572;BME280;11452;53.368;14.658;2022-10-31T14:49:04;101445.22;;;16.21;76.90
22572;BME280;11452;53.368;14.658;2022-10-31T14:54:11;101528.17;;;16.65;77.39
22572;BME280;11452;53.368;14.658;2022-10-31T14:59:18;101516.61;;;16.55;77.99
22572;BME280;11452;53.368;14.658;2022-10-31T15:04:31;101518.94;;;16.54;78.49
22572;BME280;11452;53.368;14.658;2022-10-31T15:09:37;101520.48;;;16.51;79.00
22572;BME280;11452;53.368;14.658;2022-10-31T15:14:44;101518.66;;;16.52;79.48
22572;BME280;11452;53.368;14.658;2022-10-31T15:19:50;101513.78;;;16.32;79.41
22572;BME280;11452;53.368;14.658;2022-10-31T15:24:56;101513.70;;;16.26;79.82
22572;BME280;11452;53.368;14.658;2022-10-31T15:30:15;101515.84;;;16.21;79.57
22572;BME280;11452;53.368;14.658;2022-10-31T15:35:14;101515.84;;;16.21;81.11
22572;BME280;11452;53.368;14.658;2022-10-31T15:40:19;101523.06;;;16.40;82.04
22572;BME280;11452;53.368;14.658;2022-10-31T15:45:27;101518.33;;;16.44;81.49
22572;BME280;11452;53.368;14.658;2022-10-31T15:50:41;101523.05;;;16.27;80.70
22572;BME280;11452;53.368;14.658;2022-10-31T15:55:56;101525.45;;;16.05;80.66
22572;BME280;11452;53.368;14.658;2022-10-31T16:01:05;101529.27;;;15.81;81.21
22572;BME280;11452;53.368;14.658;2022-10-31T16:06:19;101530.42;;;15.77;81.82
22572;BME280;11452;53.368;14.658;2022-10-31T16:11:38;101521.03;;;15.70;82.30
22572;BME280;11452;53.368;14.658;2022-10-31T16:16:40;101517.75;;;15.72;83.42
22572;BME280;11452;53.368;14.658;2022-10-31T16:21:41;101516.02;;;15.64;83.45
22572;BME280;11452;53.368;14.658;2022-10-31T16:26:49;101523.91;;;15.67;83.98
22572;BME280;11452;53.368;14.658;2022-10-31T16:31:55;101520.55;;;15.71;84.05
22572;BME280;11452;53.368;14.658;2022-10-31T16:37:02;101520.48;;;15.58;84.07
22572;BME280;11452;53.368;14.658;2022-10-31T16:42:08;101522.70;;;15.58;84.25
22572;BME280;11452;53.368;14.658;2022-10-31T16:47:15;101517.66;;;15.45;84.52
22572;BME280;11452;53.368;14.658;2022-10-31T16:52:21;101508.80;;;15.43;85.33
22572;BME280;11452;53.368;14.658;2022-10-31T16:57:28;101515.34;;;15.46;85.61
22572;BME280;11452;53.368;14.658;2022-10-31T17:02:35;101515.16;;;15.49;85.53
22572;BME280;11452;53.368;14.658;2022-10-31T17:07:41;101516.70;;;15.46;85.82
22572;BME280;11452;53.368;14.658;2022-10-31T17:12:49;101508.80;;;15.43;86.23
22572;BME280;11452;53.368;14.658;2022-10-31T17:17:55;101512.37;;;15.51;86.63
22572;BME280;11452;53.368;14.658;2022-10-31T17:23:01;101515.64;;;15.49;86.42
22572;BME280;11452;53.368;14.658;2022-10-31T17:28:10;101507.10;;;15.35;86.15
22572;BME280;11452;53.368;14.658;2022-10-31T17:33:16;101508.92;;;15.35;87.16
22572;BME280;11452;53.368;14.658;2022-10-31T17:38:22;101507.48;;;15.36;87.07
22572;BME280;11452;53.368;14.658;2022-10-31T17:43:28;101509.41;;;15.34;87.31
22572;BME280;11452;53.368;14.658;2022-10-31T17:48:35;101510.63;;;15.43;88.56
22572;BME280;11452;53.368;14.658;2022-10-31T17:53:40;101511.79;;;15.60;88.36
22572;BME280;11452;53.368;14.658;2022-10-31T17:58:46;101512.75;;;15.52;87.23
22572;BME280;11452;53.368;14.658;2022-10-31T18:03:52;101511.22;;;15.48;87.39
22572;BME280;11452;53.368;14.658;2022-10-31T18:09:03;101511.12;;;15.49;87.41
22572;BME280;11452;53.368;14.658;2022-10-31T18:14:09;101513.04;;;15.47;87.69
22572;BME280;11452;53.368;14.658;2022-10-31T18:19:15;101511.89;;;15.51;87.95
22572;BME280;11452;53.368;14.658;2022-10-31T18:24:21;101498.98;;;15.42;87.50
22572;BME280;11452;53.368;14.658;2022-10-31T18:29:27;101501.30;;;15.41;87.76
22572;BME280;11452;53.368;14.658;2022-10-31T18:34:33;101493.24;;;15.27;87.27
22572;BME280;11452;53.368;14.658;2022-10-31T18:39:39;101490.45;;;15.29;88.00
22572;BME280;11452;53.368;14.658;2022-10-31T18:44:45;101490.45;;;15.36;88.14
22572;BME280;11452;53.368;14.658;2022-10-31T18:49:50;101486.41;;;15.36;88.15
22572;BME280;11452;53.368;14.658;2022-10-31T18:54:56;101479.10;;;15.38;88.14
22572;BME280;11452;53.368;14.658;2022-10-31T19:00:05;101478.33;;;15.36;87.84
22572;BME280;11452;53.368;14.658;2022-10-31T19:05:11;101470.92;;;15.32;88.17
22572;BME280;11452;53.368;14.658;2022-10-31T19:10:17;101475.52;;;15.44;88.37
22572;BME280;11452;53.368;14.658;2022-10-31T19:15:22;101461.46;;;15.46;88.19
22572;BME280;11452;53.368;14.658;2022-10-31T19:20:30;101462.52;;;15.51;88.26
22572;BME280;11452;53.368;14.658;2022-10-31T19:25:35;101457.80;;;15.54;88.07
22572;BME280;11452;53.368;14.658;2022-10-31T19:30:41;101460.88;;;15.48;87.62
22572;BME280;11452;53.368;14.658;2022-10-31T19:35:47;101455.50;;;15.48;88.04
22572;BME280;11452;53.368;14.658;2022-10-31T19:40:58;101448.56;;;15.51;88.02
22572;BME280;11452;53.368;14.658;2022-10-31T19:46:04;101449.44;;;15.45;87.50
22572;BME280;11452;53.368;14.658;2022-10-31T19:51:14;101452.90;;;15.47;88.33
22572;BME280;11452;53.368;14.658;2022-10-31T19:56:22;101452.61;;;15.51;88.13
22572;BME280;11452;53.368;14.658;2022-10-31T20:01:28;101452.98;;;15.52;88.31
22572;BME280;11452;53.368;14.658;2022-10-31T20:06:37;101448.30;;;15.56;88.25
22572;BME280;11452;53.368;14.658;2022-10-31T20:11:44;101444.65;;;15.57;87.91
22572;BME280;11452;53.368;14.658;2022-10-31T20:16:50;101442.69;;;15.52;88.00
22572;BME280;11452;53.368;14.658;2022-10-31T20:21:55;101444.33;;;15.54;88.01
22572;BME280;11452;53.368;14.658;2022-10-31T20:27:01;101436.46;;;15.58;88.02
22572;BME280;11452;53.368;14.658;2022-10-31T20:32:08;101436.73;;;15.54;87.68
22572;BME280;11452;53.368;14.658;2022-10-31T20:37:13;101439.73;;;15.56;87.86
22572;BME280;11452;53.368;14.658;2022-10-31T20:42:19;101427.13;;;15.57;87.90
22572;BME280;11452;53.368;14.658;2022-10-31T20:47:25;101421.52;;;15.53;87.77
22572;BME280;11452;53.368;14.658;2022-10-31T20:52:30;101425.95;;;15.47;87.75
22572;BME280;11452;53.368;14.658;2022-10-31T20:57:36;101431.34;;;15.54;88.12
22572;BME280;11452;53.368;14.658;2022-10-31T21:02:42;101428.25;;;15.60;88.26
22572;BME280;11452;53.368;14.658;2022-10-31T21:07:48;101423.34;;;15.59;87.88
22572;BME280;11452;53.368;14.658;2022-10-31T21:12:54;101427.28;;;15.61;87.85
22572;BME280;11452;53.368;14.658;2022-10-31T21:18:00;101433.64;;;15.60;87.83
22572;BME280;11452;53.368;14.658;2022-10-31T21:23:05;101435.59;;;15.58;87.80
22572;BME280;11452;53.368;14.658;2022-10-31T21:28:11;101432.88;;;15.51;87.53
22572;BME280;11452;53.368;14.658;2022-10-31T21:33:17;101425.08;;;15.53;88.04
22572;BME280;11452;53.368;14.658;2022-10-31T21:38:23;101420.16;;;15.60;88.28
22572;BME280;11452;53.368;14.658;2022-10-31T21:43:29;101404.13;;;15.58;87.84
22572;BME280;11452;53.368;14.658;2022-10-31T21:48:39;101399.75;;;15.63;88.21
22572;BME280;11452;53.368;14.658;2022-10-31T21:53:48;101396.47;;;15.65;88.26
22572;BME280;11452;53.368;14.658;2022-10-31T21:59:12;101389.17;;;15.60;87.65
22572;BME280;11452;53.368;14.658;2022-10-31T22:04:18;101379.37;;;15.52;87.72
22572;BME280;11452;53.368;14.658;2022-10-31T22:09:23;101376.21;;;15.45;88.04
22572;BME280;11452;53.368;14.658;2022-10-31T22:14:29;101368.11;;;15.52;88.32
22572;BME280;11452;53.368;14.658;2022-10-31T22:19:35;101364.83;;;15.54;88.40
22572;BME280;11452;53.368;14.658;2022-10-31T22:24:40;101362.36;;;15.58;88.64
22572;BME280;11452;53.368;14.658;2022-10-31T22:29:47;101351.67;;;15.57;88.50
22572;BME280;11452;53.368;14.658;2022-10-31T22:34:55;101335.89;;;15.58;88.54
22572;BME280;11452;53.368;14.658;2022-10-31T22:40:01;101337.38;;;15.62;89.02
22572;BME280;11452;53.368;14.658;2022-10-31T22:45:07;101325.92;;;15.66;88.97
22572;BME280;11452;53.368;14.658;2022-10-31T22:50:13;101322.84;;;15.65;88.69
22572;BME280;11452;53.368;14.658;2022-10-31T22:55:19;101318.42;;;15.64;88.62
22572;BME280;11452;53.368;14.658;2022-10-31T23:00:24;101311.09;;;15.66;88.81
22572;BME280;11452;53.368;14.658;2022-10-31T23:05:30;101306.29;;;15.64;88.80
22572;BME280;11452;53.368;14.658;2022-10-31T23:10:35;101294.06;;;15.65;89.45
22572;BME280;11452;53.368;14.658;2022-10-31T23:15:43;101294.52;;;15.72;89.49
22572;BME280;11452;53.368;14.658;2022-10-31T23:20:52;101297.52;;;15.67;89.02
22572;BME280;11452;53.368;14.658;2022-10-31T23:25:58;101285.95;;;15.72;89.63
22572;BME280;11452;53.368;14.658;2022-10-31T23:31:21;101276.92;;;15.66;88.89
22572;BME280;11452;53.368;14.658;2022-10-31T23:36:27;101278.38;;;15.65;89.63
22572;BME280;11452;53.368;14.658;2022-10-31T23:41:32;101272.60;;;15.64;89.76
22572;BME280;11452;53.368;14.658;2022-10-31T23:46:38;101262.41;;;15.62;89.64
22572;BME280;11452;53.368;14.658;2022-10-31T23:51:43;101264.97;;;15.57;89.84
22572;BME280;11452;53.368;14.658;2022-10-31T23:56:49;101275.02;;;15.61;90.48
